Time;durP1;ratioP1;P1;durP2;ratioP2;P2;SDS_P1;SDS_P2;PMS_P1;PMS_P2;Temp;Humidity;BMP_temperature;BMP_pressure;BME280_temperature;BME280_humidity;BME280_pressure;Samples;Min_cycle;Max_cycle;Signal;HPM_P1;HPM_P2
2021/03/03 00:02:26;;;;;;;19.77;15.27;;;5.50;99.90;;;;;;4964758;28;20627;-65
2021/03/03 00:04:54;;;;;;;18.57;14.60;;;5.50;99.90;;;;;;4955537;28;20717;-65
2021/03/03 00:07:23;;;;;;;19.93;14.70;;;5.40;99.90;;;;;;4978530;28;21283;-65
2021/03/03 00:09:48;;;;;;;17.43;13.93;;;5.40;99.90;;;;;;4960031;28;20701;-65
2021/03/03 00:12:17;;;;;;;19.17;15.67;;;5.30;99.90;;;;;;4973947;28;20699;-65
2021/03/03 00:14:46;;;;;;;19.20;15.10;;;5.30;99.90;;;;;;4969415;28;20226;-65
2021/03/03 00:17:19;;;;;;;20.57;14.33;;;5.30;99.90;;;;;;4989225;28;21000;-65
2021/03/03 00:19:47;;;;;;;19.93;14.50;;;5.30;99.90;;;;;;4974015;28;20653;-65
2021/03/03 00:22:17;;;;;;;21.80;15.80;;;5.20;99.90;;;;;;4973982;28;21203;-65
2021/03/03 00:24:42;;;;;;;19.77;14.60;;;5.20;99.90;;;;;;4978764;28;20661;-65
2021/03/03 00:27:18;;;;;;;20.80;15.17;;;5.20;99.90;;;;;;4990760;28;20715;-65
2021/03/03 00:29:51;;;;;;;18.73;15.70;;;5.10;99.90;;;;;;4975151;28;20576;-65
2021/03/03 00:32:22;;;;;;;19.50;15.13;;;5.00;99.90;;;;;;4976314;28;20711;-65
2021/03/03 00:34:52;;;;;;;20.73;16.60;;;5.00;99.90;;;;;;4957089;28;20737;-65
2021/03/03 00:40:11;;;;;;;24.53;16.80;;;5.00;99.90;;;;;;4970806;28;20642;-65
2021/03/03 00:42:41;;;;;;;22.60;16.80;;;4.90;99.90;;;;;;4963165;28;20728;-65
2021/03/03 00:45:08;;;;;;;22.37;16.70;;;4.80;99.90;;;;;;4958400;28;20673;-65
2021/03/03 00:47:34;;;;;;;19.90;15.13;;;4.80;99.90;;;;;;4955998;28;21092;-65
2021/03/03 00:50:03;;;;;;;19.27;15.00;;;4.80;99.90;;;;;;4958966;28;20670;-65
2021/03/03 00:52:43;;;;;;;16.87;14.10;;;4.70;99.90;;;;;;4957923;28;21042;-65
2021/03/03 00:55:12;;;;;;;18.40;14.20;;;4.70;99.90;;;;;;4975347;28;20736;-65
2021/03/03 00:57:39;;;;;;;19.00;15.23;;;4.60;99.90;;;;;;4975723;28;20629;-65
2021/03/03 01:00:14;;;;;;;17.40;14.07;;;4.60;99.90;;;;;;4977050;28;20664;-65
2021/03/03 01:02:44;;;;;;;17.20;13.73;;;4.60;99.90;;;;;;4978596;28;20882;-65
2021/03/03 01:05:13;;;;;;;20.37;15.47;;;4.60;99.90;;;;;;4975792;28;20702;-65
2021/03/03 01:07:44;;;;;;;17.73;13.77;;;4.50;99.90;;;;;;4978325;28;20665;-65
2021/03/03 01:10:16;;;;;;;19.37;14.47;;;4.50;99.90;;;;;;4995882;28;21067;-64
2021/03/03 01:12:46;;;;;;;17.97;14.13;;;4.40;99.90;;;;;;4977422;28;20756;-65
2021/03/03 01:15:20;;;;;;;18.27;14.33;;;4.40;99.90;;;;;;4976920;28;20695;-65
2021/03/03 01:17:52;;;;;;;19.70;14.70;;;4.30;99.90;;;;;;4999427;28;20616;-65
2021/03/03 01:20:30;;;;;;;;;;;;;;;;;;;;;
2021/03/03 01:22:59;;;;;;;17.60;14.57;;;4.30;99.90;;;;;;4990289;28;20590;-65
2021/03/03 01:25:25;;;;;;;19.23;14.63;;;4.30;99.90;;;;;;4981252;28;20708;-65
2021/03/03 01:27:53;;;;;;;17.73;13.90;;;4.30;99.90;;;;;;4978800;28;20660;-65
2021/03/03 01:30:25;;;;;;;20.50;14.03;;;4.30;99.90;;;;;;4978185;28;20639;-65
2021/03/03 01:32:53;;;;;;;18.43;14.53;;;4.20;99.90;;;;;;4997898;28;20684;-65
2021/03/03 01:35:23;;;;;;;20.87;15.60;;;4.20;99.90;;;;;;4987715;28;20640;-65
2021/03/03 01:37:56;;;;;;;19.80;13.87;;;4.10;99.90;;;;;;4981803;28;20621;-64
2021/03/03 01:40:53;;;;;;;18.93;14.30;;;4.10;99.90;;;;;;4991544;28;20787;-65
2021/03/03 01:43:20;;;;;;;17.70;14.17;;;4.10;99.90;;;;;;4975680;28;21057;-65
2021/03/03 01:45:47;;;;;;;20.23;15.40;;;4.00;99.90;;;;;;4997575;28;20633;-65
2021/03/03 01:48:29;;;;;;;20.43;13.90;;;4.00;99.90;;;;;;5005087;28;20767;-65
2021/03/03 01:51:15;;;;;;;16.77;13.40;;;4.00;99.90;;;;;;4985855;28;20644;-65
2021/03/03 01:53:42;;;;;;;16.93;13.00;;;3.90;99.90;;;;;;4977386;28;20638;-65
2021/03/03 01:56:18;;;;;;;17.87;13.77;;;3.90;99.90;;;;;;4979557;28;20648;-65
2021/03/03 01:58:48;;;;;;;20.37;13.37;;;3.90;99.90;;;;;;4986980;28;21130;-65
2021/03/03 02:01:18;;;;;;;17.83;14.20;;;3.90;99.90;;;;;;4976487;28;20620;-65
2021/03/03 02:03:49;;;;;;;20.13;14.40;;;3.90;99.90;;;;;;4993797;28;21001;-65
2021/03/03 02:06:55;;;;;;;20.00;14.60;;;3.90;99.90;;;;;;4984156;28;20625;-65
2021/03/03 02:09:29;;;;;;;18.13;14.40;;;3.80;99.90;;;;;;4973475;28;21268;-64
2021/03/03 02:12:06;;;;;;;20.83;15.07;;;3.80;99.90;;;;;;4977389;28;20621;-65
2021/03/03 02:14:51;;;;;;;18.37;14.27;;;3.80;99.90;;;;;;4976820;28;20724;-65
2021/03/03 02:17:20;;;;;;;22.20;15.20;;;3.80;99.90;;;;;;4981008;28;20719;-67
2021/03/03 02:19:54;;;;;;;20.27;14.50;;;3.70;99.90;;;;;;4989018;28;20695;-65
2021/03/03 02:22:34;;;;;;;17.93;13.90;;;3.70;99.90;;;;;;4979664;28;20621;-65
2021/03/03 02:25:13;;;;;;;20.10;14.10;;;3.70;99.90;;;;;;4975374;28;20652;-65
2021/03/03 02:27:43;;;;;;;22.07;13.43;;;3.60;99.90;;;;;;5000984;28;20739;-65
2021/03/03 02:30:18;;;;;;;17.67;15.23;;;3.60;99.90;;;;;;4993831;28;20652;-65
2021/03/03 02:32:47;;;;;;;20.03;14.20;;;3.60;99.90;;;;;;4976931;28;20670;-65
2021/03/03 02:35:31;;;;;;;19.77;14.17;;;3.60;99.90;;;;;;4974450;28;20641;-65
2021/03/03 02:38:14;;;;;;;17.53;13.63;;;3.60;99.90;;;;;;4991576;28;20987;-65
2021/03/03 02:40:45;;;;;;;19.23;13.73;;;3.60;99.90;;;;;;4999860;28;20610;-65
2021/03/03 02:43:17;;;;;;;18.50;14.17;;;3.50;99.90;;;;;;4991854;28;20619;-64
2021/03/03 02:45:55;;;;;;;18.40;13.70;;;3.50;99.90;;;;;;4974389;28;20612;-65
2021/03/03 02:48:31;;;;;;;21.03;14.33;;;3.50;99.90;;;;;;4991387;28;21016;-65
2021/03/03 02:51:04;;;;;;;20.30;13.90;;;3.50;99.90;;;;;;4994817;28;20640;-65
2021/03/03 02:53:30;;;;;;;19.60;13.73;;;3.40;99.90;;;;;;4973466;28;21004;-65
2021/03/03 02:55:59;;;;;;;24.10;13.83;;;3.40;99.90;;;;;;4988295;28;20626;-65
2021/03/03 02:58:29;;;;;;;21.87;15.70;;;3.40;99.90;;;;;;4991296;28;20211;-65
2021/03/03 03:01:11;;;;;;;24.50;15.10;;;3.40;99.90;;;;;;4978241;28;20621;-65
2021/03/03 03:03:55;;;;;;;18.10;14.10;;;3.40;99.90;;;;;;4994947;28;20700;-64
2021/03/03 03:06:36;;;;;;;19.80;13.93;;;3.40;99.90;;;;;;4978463;28;21202;-65
2021/03/03 03:09:22;;;;;;;18.47;13.43;;;3.30;99.90;;;;;;4972806;28;20696;-65
2021/03/03 03:11:58;;;;;;;20.30;15.47;;;3.30;99.90;;;;;;4979253;28;20613;-65
2021/03/03 03:14:31;;;;;;;17.93;13.90;;;3.20;99.90;;;;;;4975252;28;20636;-65
2021/03/03 03:17:02;;;;;;;18.90;13.67;;;3.20;99.90;;;;;;4975480;28;20644;-65
2021/03/03 03:20:05;;;;;;;19.07;14.30;;;3.20;99.90;;;;;;4971824;28;20717;-65
2021/03/03 03:22:33;;;;;;;21.57;14.77;;;3.20;99.90;;;;;;4994616;28;20644;-64
2021/03/03 03:24:59;;;;;;;20.97;15.17;;;3.10;99.90;;;;;;4978835;28;20641;-65
2021/03/03 03:27:29;;;;;;;19.27;14.60;;;3.10;99.90;;;;;;4979513;28;21189;-65
2021/03/03 03:30:08;;;;;;;19.37;14.93;;;3.10;99.90;;;;;;4997929;28;20652;-64
2021/03/03 03:32:37;;;;;;;17.43;14.03;;;3.10;99.90;;;;;;4977877;28;20609;-64
2021/03/03 03:35:11;;;;;;;19.30;14.23;;;3.10;99.90;;;;;;4959214;28;20657;-65
2021/03/03 03:37:41;;;;;;;19.43;13.73;;;3.10;99.90;;;;;;4968285;28;20697;-64
2021/03/03 03:40:14;;;;;;;18.97;14.00;;;3.00;99.90;;;;;;4970330;28;20654;-65
2021/03/03 03:43:02;;;;;;;21.77;14.80;;;3.00;99.90;;;;;;4957271;28;20610;-64
2021/03/03 03:45:31;;;;;;;18.63;14.03;;;3.00;99.90;;;;;;4957505;28;21430;-65
2021/03/03 03:48:03;;;;;;;18.13;13.47;;;2.90;99.90;;;;;;4955590;28;20646;-65
2021/03/03 03:50:31;;;;;;;20.77;14.50;;;2.90;99.90;;;;;;4956590;28;20668;-65
2021/03/03 03:52:57;;;;;;;18.90;14.50;;;2.90;99.90;;;;;;4952193;28;20720;-65
2021/03/03 03:55:44;;;;;;;18.97;13.87;;;3.00;99.90;;;;;;4953743;28;20642;-65
2021/03/03 03:58:17;;;;;;;20.37;14.30;;;2.90;99.90;;;;;;4972133;28;20646;-65
2021/03/03 04:00:43;;;;;;;20.17;14.00;;;2.80;99.90;;;;;;4974985;28;21473;-65
2021/03/03 04:03:14;;;;;;;17.20;13.87;;;2.80;99.90;;;;;;4949538;28;20630;-65
2021/03/03 04:05:55;;;;;;;20.23;15.00;;;2.80;99.90;;;;;;4959259;28;20210;-65
2021/03/03 04:08:26;;;;;;;20.77;14.53;;;2.70;99.90;;;;;;4958269;28;20676;-64
2021/03/03 04:10:57;;;;;;;22.40;15.77;;;2.70;99.90;;;;;;4950048;28;21204;-65
2021/03/03 04:13:23;;;;;;;20.30;14.77;;;2.70;99.90;;;;;;4956087;28;20766;-65
2021/03/03 04:15:57;;;;;;;20.13;14.43;;;2.60;99.90;;;;;;4956230;28;21117;-64
2021/03/03 04:18:23;;;;;;;19.80;14.30;;;2.60;99.90;;;;;;4956021;28;20294;-64
2021/03/03 04:20:50;;;;;;;20.47;15.03;;;2.60;99.90;;;;;;4959618;28;22058;-65
2021/03/03 04:29:59;;;;;;;23.47;15.37;;;2.60;99.90;;;;;;4954632;28;21321;-65
2021/03/03 04:32:24;;;;;;;28.23;17.97;;;2.60;99.90;;;;;;4942476;28;20629;-64
2021/03/03 04:34:59;;;;;;;27.07;18.63;;;2.70;99.90;;;;;;4951077;28;20645;-65
2021/03/03 04:37:41;;;;;;;26.53;17.30;;;2.80;99.90;;;;;;4970567;28;20201;-64
2021/03/03 04:40:10;;;;;;;25.80;17.63;;;2.80;99.90;;;;;;4977083;28;21245;-65
2021/03/03 04:42:43;;;;;;;30.20;18.60;;;2.90;99.90;;;;;;4963392;28;20633;-65
2021/03/03 04:45:14;;;;;;;30.73;18.60;;;3.00;99.90;;;;;;4959806;28;21011;-65
2021/03/03 04:47:43;;;;;;;34.43;21.20;;;3.10;99.90;;;;;;4973356;28;20792;-64
2021/03/03 04:50:09;;;;;;;33.73;21.10;;;3.10;99.90;;;;;;4959978;28;20657;-65
2021/03/03 04:52:35;;;;;;;37.13;21.53;;;3.20;99.90;;;;;;4957305;28;20621;-65
2021/03/03 04:55:03;;;;;;;30.40;19.07;;;3.20;99.90;;;;;;4955496;28;20622;-65
2021/03/03 04:57:29;;;;;;;31.03;20.70;;;3.20;99.90;;;;;;4976368;28;20637;-65
2021/03/03 05:00:05;;;;;;;36.10;21.13;;;3.30;99.90;;;;;;4993142;28;20717;-65
2021/03/03 05:02:31;;;;;;;31.27;19.80;;;3.20;99.90;;;;;;4978601;28;20178;-65
2021/03/03 05:04:56;;;;;;;39.63;20.73;;;3.30;99.90;;;;;;5000432;28;21228;-64
2021/03/03 05:07:27;;;;;;;56.00;23.40;;;3.30;99.90;;;;;;4977465;28;20291;-65
2021/03/03 05:09:52;;;;;;;43.27;21.87;;;3.30;99.90;;;;;;4992763;28;20210;-64
2021/03/03 05:12:18;;;;;;;31.83;20.97;;;3.40;99.90;;;;;;4984826;28;21199;-65
2021/03/03 05:14:48;;;;;;;32.27;21.40;;;3.40;99.90;;;;;;4986431;28;21827;-65
2021/03/03 05:17:19;;;;;;;30.40;20.50;;;3.40;99.90;;;;;;4974005;28;20624;-65
2021/03/03 05:19:50;;;;;;;31.67;20.37;;;3.30;99.90;;;;;;4974873;28;20692;-65
2021/03/03 05:22:18;;;;;;;32.50;20.90;;;3.40;99.90;;;;;;4973559;28;20633;-65
2021/03/03 05:24:48;;;;;;;32.53;19.60;;;3.30;99.90;;;;;;4986867;28;20712;-65
2021/03/03 05:27:17;;;;;;;47.17;21.07;;;3.30;99.90;;;;;;4999027;28;20617;-64
2021/03/03 05:29:45;;;;;;;44.53;19.70;;;3.30;99.90;;;;;;4992254;28;20756;-64
2021/03/03 05:32:10;;;;;;;33.23;18.70;;;3.30;99.90;;;;;;4973275;28;20745;-65
2021/03/03 05:34:46;;;;;;;41.60;19.73;;;3.30;99.90;;;;;;4985852;28;21282;-64
2021/03/03 05:37:14;;;;;;;30.00;18.27;;;3.30;99.90;;;;;;4989484;28;20202;-65
2021/03/03 05:39:40;;;;;;;31.20;19.70;;;3.30;99.90;;;;;;4979178;28;20657;-65
2021/03/03 05:42:13;;;;;;;38.37;19.07;;;3.30;99.90;;;;;;4988662;28;20657;-65
2021/03/03 05:44:47;;;;;;;37.30;19.93;;;3.30;99.90;;;;;;4974971;28;20225;-65
2021/03/03 05:47:22;;;;;;;40.60;19.47;;;3.30;99.90;;;;;;4991805;28;20700;-65
2021/03/03 05:49:55;;;;;;;29.87;18.30;;;3.30;99.90;;;;;;4978055;28;23155;-65
2021/03/03 05:52:22;;;;;;;28.37;17.90;;;3.20;99.90;;;;;;4988988;28;20684;-64
2021/03/03 05:54:50;;;;;;;30.47;18.10;;;3.20;99.90;;;;;;4990504;28;20640;-65
2021/03/03 05:57:16;;;;;;;33.77;19.53;;;3.20;99.90;;;;;;4993411;28;20644;-65
2021/03/03 05:59:46;;;;;;;29.53;17.80;;;3.20;99.90;;;;;;4979577;28;20796;-65
2021/03/03 06:02:16;;;;;;;33.87;19.27;;;3.10;99.90;;;;;;4987447;28;20194;-64
2021/03/03 06:04:43;;;;;;;28.10;18.63;;;3.10;99.90;;;;;;4981025;28;20629;-65
2021/03/03 06:07:16;;;;;;;32.13;19.23;;;3.10;99.90;;;;;;4982568;28;20659;-65
2021/03/03 06:09:50;;;;;;;30.73;18.53;;;3.10;99.90;;;;;;4988859;28;20637;-65
2021/03/03 06:12:15;;;;;;;28.47;17.27;;;3.10;99.90;;;;;;4973728;28;20645;-64
2021/03/03 06:14:41;;;;;;;23.93;16.33;;;3.10;99.90;;;;;;4974920;28;20637;-65
2021/03/03 06:17:12;;;;;;;25.63;18.10;;;3.10;99.90;;;;;;4993882;28;20205;-64
2021/03/03 06:19:53;;;;;;;28.17;16.90;;;3.10;99.90;;;;;;4974567;28;22573;-65
2021/03/03 06:22:49;;;;;;;30.17;17.80;;;3.10;99.90;;;;;;4970940;28;20682;-63
2021/03/03 06:25:22;;;;;;;26.50;16.57;;;3.10;99.90;;;;;;4974893;28;20675;-65
2021/03/03 06:27:48;;;;;;;33.37;17.73;;;3.10;99.90;;;;;;4992680;28;20644;-64
2021/03/03 06:30:27;;;;;;;29.77;17.13;;;3.00;99.90;;;;;;4985371;28;20644;-64
2021/03/03 06:33:05;;;;;;;28.90;16.87;;;3.10;99.90;;;;;;4973280;28;20662;-65
2021/03/03 06:35:44;;;;;;;53.37;18.30;;;3.00;99.90;;;;;;4984793;28;20649;-64
2021/03/03 06:38:32;;;;;;;31.67;17.23;;;3.00;99.90;;;;;;4975728;28;20684;-65
2021/03/03 06:41:06;;;;;;;35.23;17.20;;;3.00;99.90;;;;;;4974342;28;20613;-64
2021/03/03 06:43:34;;;;;;;33.70;19.00;;;3.00;99.90;;;;;;4956360;28;21293;-65
2021/03/03 06:46:18;;;;;;;35.40;18.30;;;3.00;99.90;;;;;;4970607;28;20630;-64
2021/03/03 06:48:45;;;;;;;26.50;17.53;;;3.00;99.90;;;;;;4972673;28;20681;-65
2021/03/03 06:51:36;;;;;;;29.30;17.60;;;3.00;99.90;;;;;;4991805;28;20977;-65
2021/03/03 06:54:06;;;;;;;33.17;18.17;;;2.90;99.90;;;;;;4966245;28;20642;-65
2021/03/03 06:56:57;;;;;;;30.30;19.33;;;2.90;99.90;;;;;;4984815;28;20661;-64
2021/03/03 06:59:30;;;;;;;30.50;19.60;;;2.90;99.90;;;;;;4983703;28;20701;-65
2021/03/03 07:02:31;;;;;;;27.80;19.33;;;2.90;99.90;;;;;;4982482;28;20624;-64
2021/03/03 07:05:10;;;;;;;34.03;20.10;;;2.90;99.90;;;;;;4984039;28;20664;-64
2021/03/03 07:07:35;;;;;;;34.30;20.83;;;3.00;99.90;;;;;;4973816;28;21130;-65
2021/03/03 07:10:01;;;;;;;32.80;20.37;;;3.00;99.90;;;;;;4967080;28;21160;-65
2021/03/03 07:12:30;;;;;;;30.43;19.60;;;3.10;99.90;;;;;;4966179;28;20191;-64
2021/03/03 07:15:14;;;;;;;36.97;21.60;;;3.10;99.90;;;;;;4966401;28;20246;-65
2021/03/03 07:17:44;;;;;;;36.07;20.60;;;3.10;99.90;;;;;;4953048;28;20623;-65
2021/03/03 07:20:24;;;;;;;38.80;21.00;;;3.20;99.90;;;;;;4953615;28;20666;-65
2021/03/03 07:22:57;;;;;;;37.10;22.50;;;3.20;99.90;;;;;;4968409;28;21213;-65
2021/03/03 07:25:24;;;;;;;39.10;23.67;;;3.20;99.90;;;;;;4950194;28;20635;-64
2021/03/03 07:27:56;;;;;;;35.87;22.47;;;3.30;99.90;;;;;;4963743;28;20667;-65
2021/03/03 07:30:24;;;;;;;45.63;24.33;;;3.30;99.90;;;;;;4954659;28;21389;-65
2021/03/03 07:32:50;;;;;;;45.00;24.80;;;3.40;99.90;;;;;;4945734;28;21186;-65
2021/03/03 07:35:18;;;;;;;43.80;24.60;;;3.40;99.90;;;;;;4967610;28;20645;-65
2021/03/03 07:37:51;;;;;;;41.97;24.60;;;3.40;99.90;;;;;;4958748;28;21038;-65
2021/03/03 07:40:17;;;;;;;42.63;24.70;;;3.40;99.90;;;;;;4988456;23;20719;-71
2021/03/03 07:42:56;;;;;;;39.80;24.80;;;3.40;99.90;;;;;;4987568;28;20625;-72
2021/03/03 07:45:28;;;;;;;46.47;26.00;;;3.50;99.90;;;;;;4997536;28;20653;-73
2021/03/03 07:47:55;;;;;;;44.70;25.90;;;3.50;99.90;;;;;;5002390;28;20621;-73
2021/03/03 07:50:27;;;;;;;40.80;24.70;;;3.50;99.90;;;;;;4982434;28;20661;-73
2021/03/03 07:52:56;;;;;;;44.20;25.20;;;3.60;99.90;;;;;;5000093;28;21195;-71
2021/03/03 07:55:23;;;;;;;43.73;25.20;;;3.60;99.90;;;;;;4961000;28;20686;-72
2021/03/03 07:57:59;;;;;;;48.23;26.30;;;3.70;99.90;;;;;;4972740;28;20661;-71
2021/03/03 08:00:31;;;;;;;43.40;25.33;;;3.90;99.90;;;;;;4971524;28;20657;-72
2021/03/03 08:03:00;;;;;;;39.73;23.70;;;4.10;99.90;;;;;;4956078;28;20622;-72
2021/03/03 08:05:30;;;;;;;43.10;25.10;;;4.20;99.90;;;;;;4989003;28;21535;-71
2021/03/03 08:08:16;;;;;;;41.67;23.47;;;4.30;99.90;;;;;;4984328;28;20658;-72
2021/03/03 08:10:45;;;;;;;36.57;23.40;;;4.30;99.90;;;;;;4978270;28;20707;-74
2021/03/03 08:13:15;;;;;;;41.27;24.23;;;4.30;99.90;;;;;;4976757;28;20709;-71
2021/03/03 08:15:48;;;;;;;44.33;25.27;;;4.30;99.90;;;;;;4974463;28;20991;-75
2021/03/03 08:18:14;;;;;;;42.03;25.63;;;4.30;99.90;;;;;;4983453;28;20660;-72
2021/03/03 08:20:46;;;;;;;42.40;24.73;;;4.40;99.90;;;;;;4985721;28;20753;-75
2021/03/03 08:23:32;;;;;;;39.00;24.37;;;4.40;99.90;;;;;;4998065;28;20186;-74
2021/03/03 08:25:58;;;;;;;48.33;25.23;;;4.40;99.90;;;;;;4980913;28;20776;-73
2021/03/03 08:28:35;;;;;;;36.83;23.50;;;4.40;99.90;;;;;;4983607;28;20672;-77
2021/03/03 08:31:16;;;;;;;37.07;23.70;;;4.50;99.90;;;;;;4982723;28;21230;-72
2021/03/03 08:33:56;;;;;;;39.37;23.80;;;4.50;99.90;;;;;;4971768;28;20661;-73
2021/03/03 08:36:22;;;;;;;33.93;23.83;;;4.60;99.90;;;;;;4965476;28;20677;-76
2021/03/03 08:38:54;;;;;;;36.07;23.37;;;4.70;99.90;;;;;;4966822;28;20658;-71
2021/03/03 08:41:23;;;;;;;40.97;23.90;;;4.70;99.90;;;;;;4977351;28;20712;-73
2021/03/03 08:43:58;;;;;;;40.40;24.17;;;4.80;99.90;;;;;;4974511;28;20629;-76
2021/03/03 08:46:23;;;;;;;39.07;25.40;;;4.90;99.90;;;;;;4978993;28;20609;-72
2021/03/03 08:48:58;;;;;;;41.53;25.90;;;5.00;99.90;;;;;;4985772;28;20640;-74
2021/03/03 08:51:27;;;;;;;38.87;23.93;;;5.00;99.90;;;;;;4984919;28;20322;-75
2021/03/03 08:54:02;;;;;;;39.17;25.77;;;5.10;99.90;;;;;;4999136;28;20672;-73
2021/03/03 08:56:44;;;;;;;40.47;26.13;;;5.20;99.90;;;;;;4977679;28;20648;-73
2021/03/03 08:59:10;;;;;;;39.10;28.00;;;5.30;99.90;;;;;;4997160;28;20669;-75
2021/03/03 09:01:54;;;;;;;41.30;26.40;;;5.40;99.90;;;;;;4984538;28;20629;-74
2021/03/03 09:04:25;;;;;;;36.17;24.67;;;5.50;99.90;;;;;;5003331;28;20739;-75
2021/03/03 09:06:56;;;;;;;39.00;25.60;;;5.70;99.90;;;;;;5007304;28;20633;-78
2021/03/03 09:09:23;;;;;;;41.70;26.87;;;5.70;99.90;;;;;;4992469;28;20672;-75
2021/03/03 09:12:00;;;;;;;39.10;26.13;;;5.80;99.90;;;;;;4982445;28;20645;-74
2021/03/03 09:14:28;;;;;;;39.30;26.80;;;5.90;99.90;;;;;;4979865;28;20656;-74
2021/03/03 09:16:56;;;;;;;40.33;26.20;;;5.90;99.90;;;;;;4979035;28;20654;-70
2021/03/03 09:19:24;;;;;;;34.97;24.33;;;6.10;99.90;;;;;;4984181;28;20653;-72
2021/03/03 09:21:50;;;;;;;39.50;25.30;;;6.20;99.90;;;;;;4978496;28;20708;-75
2021/03/03 09:24:16;;;;;;;36.30;25.33;;;6.30;99.90;;;;;;4966311;28;20757;-74
2021/03/03 09:26:45;;;;;;;34.87;25.27;;;6.40;99.90;;;;;;4971509;28;20257;-72
2021/03/03 09:29:34;;;;;;;35.57;25.63;;;6.50;99.90;;;;;;4991378;28;20800;-71
2021/03/03 09:32:14;;;;;;;34.50;23.53;;;6.60;99.90;;;;;;5001924;28;21035;-72
2021/03/03 09:34:46;;;;;;;30.40;22.73;;;6.70;99.90;;;;;;4982631;28;20696;-69
2021/03/03 09:37:12;;;;;;;30.43;22.80;;;6.90;99.90;;;;;;4972271;28;21010;-70
2021/03/03 09:39:40;;;;;;;31.90;22.10;;;7.00;99.90;;;;;;4969505;28;21058;-74
2021/03/03 09:42:09;;;;;;;36.33;23.33;;;7.20;99.90;;;;;;4970793;28;20624;-70
2021/03/03 09:44:48;;;;;;;30.83;22.03;;;7.30;99.90;;;;;;4983557;28;20656;-75
2021/03/03 09:47:31;;;;;;;27.27;21.20;;;7.50;99.90;;;;;;4975830;28;20632;-72
2021/03/03 09:49:58;;;;;;;33.37;22.53;;;7.70;99.90;;;;;;4963490;28;20652;-73
2021/03/03 09:52:42;;;;;;;28.53;22.17;;;7.80;99.90;;;;;;4974917;28;20621;-76
2021/03/03 09:55:19;;;;;;;31.10;22.80;;;7.90;99.90;;;;;;4970698;28;20703;-71
2021/03/03 09:57:55;;;;;;;31.43;22.80;;;8.00;99.90;;;;;;4973614;28;21318;-71
2021/03/03 10:00:26;;;;;;;25.60;21.40;;;8.10;99.90;;;;;;4970898;28;20656;-73
2021/03/03 10:03:01;;;;;;;28.23;21.80;;;8.20;99.90;;;;;;4969390;28;20617;-72
2021/03/03 10:05:32;;;;;;;28.03;20.87;;;8.30;99.90;;;;;;4948990;28;21011;-73
2021/03/03 10:08:03;;;;;;;28.33;20.93;;;8.40;99.90;;;;;;4958629;28;20664;-73
2021/03/03 10:10:34;;;;;;;30.03;21.60;;;8.50;99.90;;;;;;4950621;28;20661;-71
2021/03/03 10:13:03;;;;;;;28.43;21.53;;;8.60;99.90;;;;;;4964027;28;20680;-72
2021/03/03 10:15:35;;;;;;;26.83;20.77;;;8.80;99.90;;;;;;4971293;28;20641;-74
2021/03/03 10:18:06;;;;;;;29.13;21.30;;;8.90;99.90;;;;;;4990019;28;20660;-74
2021/03/03 10:20:43;;;;;;;26.07;21.50;;;9.00;99.90;;;;;;4995362;28;20645;-71
2021/03/03 10:23:09;;;;;;;28.93;21.53;;;9.20;99.90;;;;;;4981781;28;20826;-72
2021/03/03 10:25:43;;;;;;;28.00;20.63;;;9.30;99.90;;;;;;4983242;28;20705;-71
2021/03/03 10:28:20;;;;;;;31.07;22.07;;;9.40;99.90;;;;;;4974134;28;20724;-71
2021/03/03 10:30:53;;;;;;;30.40;20.87;;;9.50;99.90;;;;;;4969169;28;20871;-68
2021/03/03 10:33:39;;;;;;;24.97;20.27;;;9.70;99.90;;;;;;4983354;28;20660;-72
2021/03/03 10:36:19;;;;;;;26.97;21.07;;;9.80;99.90;;;;;;4981813;28;21203;-75
2021/03/03 10:38:54;;;;;;;24.23;20.80;;;10.00;99.90;;;;;;4985798;28;20645;-72
2021/03/03 10:41:33;;;;;;;25.90;20.97;;;10.10;99.90;;;;;;4978961;28;20655;-74
2021/03/03 10:44:00;;;;;;;30.10;20.70;;;10.20;99.90;;;;;;4992883;28;20637;-73
2021/03/03 10:46:28;;;;;;;26.87;20.90;;;10.40;99.90;;;;;;4983587;28;20617;-72
2021/03/03 10:48:56;;;;;;;26.00;19.70;;;10.50;99.90;;;;;;4971089;28;20636;-70
2021/03/03 10:51:36;;;;;;;23.87;20.30;;;10.70;99.90;;;;;;4973407;28;20660;-72
2021/03/03 10:54:05;;;;;;;24.53;18.73;;;10.90;99.90;;;;;;4983914;28;20640;-70
2021/03/03 10:56:37;;;;;;;23.90;19.03;;;11.00;99.90;;;;;;4965909;28;20700;-72
2021/03/03 10:59:05;;;;;;;25.17;19.03;;;11.20;99.90;;;;;;4976659;28;20649;-71
2021/03/03 11:01:46;;;;;;;22.50;19.10;;;11.40;99.90;;;;;;4966233;28;20744;-71
2021/03/03 11:04:15;;;;;;;21.50;18.20;;;11.50;99.90;;;;;;4970002;28;20684;-69
2021/03/03 11:06:41;;;;;;;25.77;18.67;;;11.70;99.90;;;;;;4971433;28;20621;-71
2021/03/03 11:09:13;;;;;;;23.63;19.67;;;11.90;99.90;;;;;;4973297;28;20732;-74
2021/03/03 11:11:55;;;;;;;22.40;18.73;;;12.00;99.90;;;;;;4971882;28;20609;-72
2021/03/03 11:14:21;;;;;;;24.17;19.30;;;12.20;99.90;;;;;;4982854;28;20641;-71
2021/03/03 11:16:48;;;;;;;20.80;18.60;;;12.30;99.90;;;;;;4983541;28;21446;-71
2021/03/03 11:19:14;;;;;;;23.23;18.70;;;12.50;99.90;;;;;;4968871;28;20741;-69
2021/03/03 11:21:45;;;;;;;23.57;18.80;;;12.50;99.90;;;;;;4968496;28;20663;-71
2021/03/03 11:24:11;;;;;;;21.40;18.40;;;12.70;99.90;;;;;;4970384;28;20695;-73
2021/03/03 11:26:41;;;;;;;23.90;17.83;;;12.70;99.90;;;;;;4986837;28;20625;-71
2021/03/03 11:29:07;;;;;;;21.30;18.47;;;12.90;99.90;;;;;;4978664;28;20640;-73
2021/03/03 11:31:34;;;;;;;23.03;17.80;;;13.10;99.90;;;;;;4987845;28;20657;-73
2021/03/03 11:33:59;;;;;;;21.40;17.50;;;13.30;99.90;;;;;;4966226;28;20741;-72
2021/03/03 11:36:25;;;;;;;23.77;18.43;;;13.40;99.90;;;;;;4964689;28;20641;-74
2021/03/03 11:38:53;;;;;;;19.57;17.47;;;13.60;99.90;;;;;;4970931;28;20222;-73
2021/03/03 11:41:19;;;;;;;18.87;16.30;;;13.70;99.90;;;;;;4964452;28;20306;-72
2021/03/03 11:43:46;;;;;;;19.30;16.80;;;13.90;99.90;;;;;;4984717;28;20644;-74
2021/03/03 11:46:12;;;;;;;22.77;18.27;;;14.10;99.90;;;;;;4972963;28;20541;-73
2021/03/03 11:48:41;;;;;;;23.00;18.47;;;14.30;99.90;;;;;;4976386;28;20626;-74
2021/03/03 11:51:09;;;;;;;21.60;17.70;;;14.40;99.90;;;;;;4970951;28;20280;-72
2021/03/03 11:53:35;;;;;;;19.30;16.73;;;14.60;99.90;;;;;;4970647;28;20647;-73
2021/03/03 11:56:03;;;;;;;20.97;18.50;;;14.90;99.90;;;;;;4965175;28;20630;-73
2021/03/03 11:58:39;;;;;;;21.20;17.73;;;15.20;99.90;;;;;;4966541;28;20591;-72
2021/03/03 12:01:05;;;;;;;19.57;17.47;;;15.50;99.90;;;;;;4982498;28;20736;-71
2021/03/03 12:03:31;;;;;;;21.93;17.57;;;15.70;99.90;;;;;;4970000;28;20634;-75
2021/03/03 12:05:57;;;;;;;21.70;17.43;;;15.90;99.90;;;;;;4966757;28;20615;-69
2021/03/03 12:08:22;;;;;;;24.47;19.13;;;15.90;99.90;;;;;;4972448;28;20354;-71
2021/03/03 12:10:51;;;;;;;20.60;17.70;;;15.90;99.90;;;;;;4964213;28;20226;-74
2021/03/03 12:13:17;;;;;;;20.20;16.70;;;16.00;99.90;;;;;;4967758;28;20237;-73
2021/03/03 12:15:45;;;;;;;20.13;17.60;;;15.80;99.90;;;;;;4967794;28;20633;-71
2021/03/03 12:18:11;;;;;;;21.57;17.20;;;15.80;99.90;;;;;;4970417;28;20209;-72
2021/03/03 12:20:36;;;;;;;19.87;17.50;;;15.70;99.90;;;;;;4967982;28;20676;-72
2021/03/03 12:23:05;;;;;;;21.93;17.10;;;15.60;99.90;;;;;;4966337;28;20194;-74
2021/03/03 12:25:32;;;;;;;24.93;18.33;;;15.50;99.90;;;;;;4963799;28;20194;-72
2021/03/03 12:27:58;;;;;;;22.27;17.63;;;15.60;99.90;;;;;;4976323;28;20775;-71
2021/03/03 12:30:24;;;;;;;22.83;18.40;;;16.20;99.90;;;;;;4962162;28;20751;-72
2021/03/03 12:32:50;;;;;;;19.23;17.20;;;17.30;99.90;;;;;;4976545;28;20762;-72
2021/03/03 12:35:15;;;;;;;20.67;18.20;;;18.80;99.90;;;;;;4960075;28;21367;-72
2021/03/03 12:37:41;;;;;;;21.50;16.93;;;20.10;99.90;;;;;;4967956;28;20653;-71
2021/03/03 12:40:16;;;;;;;20.10;18.00;;;21.40;99.90;;;;;;4978754;28;20682;-70
2021/03/03 12:42:42;;;;;;;20.33;18.10;;;22.50;99.90;;;;;;5002921;28;20616;-74
2021/03/03 12:45:08;;;;;;;18.43;16.37;;;23.40;98.00;;;;;;4971374;28;20629;-70
2021/03/03 12:47:36;;;;;;;20.97;18.83;;;24.30;96.30;;;;;;4982753;28;20198;-72
2021/03/03 12:50:04;;;;;;;20.33;18.23;;;25.10;92.70;;;;;;4980985;28;20649;-72
2021/03/03 12:52:30;;;;;;;20.47;18.10;;;25.60;86.90;;;;;;4979810;28;20653;-74
2021/03/03 12:54:57;;;;;;;21.33;19.13;;;26.00;84.20;;;;;;4974665;28;21152;-74
2021/03/03 12:57:26;;;;;;;20.43;18.33;;;25.90;79.70;;;;;;4979067;28;20210;-74
2021/03/03 12:59:51;;;;;;;21.40;19.23;;;26.30;77.40;;;;;;4981659;28;21290;-74
2021/03/03 13:02:17;;;;;;;20.47;18.27;;;26.20;76.40;;;;;;4985260;28;20617;-75
2021/03/03 13:04:42;;;;;;;20.93;18.77;;;26.70;75.30;;;;;;4979411;28;20219;-74
2021/03/03 13:07:11;;;;;;;20.53;18.40;;;27.00;73.30;;;;;;4980771;28;20236;-74
2021/03/03 13:09:39;;;;;;;20.30;18.20;;;27.00;72.20;;;;;;4987824;28;20221;-74